Time;durP1;ratioP1;P1;durP2;ratioP2;P2;SDS_P1;SDS_P2;PMS_P1;PMS_P2;Temp;Humidity;BMP_temperature;BMP_pressure;BME280_temperature;BME280_humidity;BME280_pressure;Samples;Min_cycle;Max_cycle;Signal;HPM_P1;HPM_P2
2023/02/20 00:00:44;;;;;;;7.50;4.72;;;5.40;99.90;;;-144.05;83.15;57031.50;4995056;28;20096;-81
2023/02/20 00:03:15;;;;;;;7.50;4.63;;;5.40;99.90;;;-144.05;83.39;57052.75;4996604;28;20083;-80
2023/02/20 00:05:41;;;;;;;8.65;5.28;;;5.40;99.90;;;-144.05;83.06;57046.38;4995651;28;20246;-82
2023/02/20 00:08:07;;;;;;;10.30;4.25;;;5.40;99.90;;;-144.05;83.08;57061.22;4995385;28;20037;-78
2023/02/20 00:10:33;;;;;;;9.63;4.05;;;5.40;99.90;;;-144.05;82.80;57067.59;5011839;28;20030;-81
2023/02/20 00:12:59;;;;;;;5.55;3.50;;;5.30;99.90;;;-144.05;83.81;57048.50;5012062;28;20026;-83
2023/02/20 00:15:25;;;;;;;7.25;4.00;;;5.40;99.90;;;-144.05;83.67;57040.00;5012605;28;20030;-80
2023/02/20 00:17:51;;;;;;;8.57;4.25;;;5.30;99.90;;;-144.05;83.60;57010.25;5029078;28;20034;-81
2023/02/20 00:20:24;;;;;;;5.82;3.58;;;5.40;99.90;;;-144.05;83.46;57054.88;5013873;28;20029;-79
2023/02/20 00:22:51;;;;;;;10.75;4.50;;;5.40;99.90;;;-144.05;83.36;57044.25;5001887;28;20026;-82
2023/02/20 00:25:20;;;;;;;8.05;4.60;;;5.40;99.90;;;-144.05;83.50;57054.88;4999775;28;20034;-84
2023/02/20 00:27:46;;;;;;;8.32;4.90;;;5.30;99.90;;;-144.05;84.00;57020.88;4999233;28;20476;-82
2023/02/20 00:30:23;;;;;;;11.27;5.18;;;5.50;99.90;;;-144.05;84.20;57056.97;4999199;28;20494;-84
2023/02/20 00:32:52;;;;;;;8.55;5.13;;;5.40;99.90;;;-144.05;84.34;57061.22;4998589;28;20037;-82
2023/02/20 00:35:19;;;;;;;10.00;5.82;;;5.50;99.90;;;-144.05;84.22;57035.75;4997300;28;20404;-83
2023/02/20 00:37:47;;;;;;;13.57;6.70;;;5.40;99.90;;;-144.05;84.01;57042.13;4997713;28;20466;-82
2023/02/20 00:40:16;;;;;;;13.80;6.05;;;5.50;99.90;;;-144.05;84.20;57056.97;4999362;28;20030;-83
2023/02/20 00:42:43;;;;;;;17.25;6.88;;;5.50;99.90;;;-144.05;84.41;57040.00;4998000;28;20439;-82
2023/02/20 00:45:10;;;;;;;12.52;6.93;;;5.50;99.90;;;-144.05;83.99;57050.63;4997960;28;20034;-83
2023/02/20 00:47:36;;;;;;;15.70;7.57;;;5.50;99.90;;;-144.05;84.02;57044.25;4995932;28;20034;-83
2023/02/20 00:50:04;;;;;;;15.13;8.13;;;5.50;99.90;;;-144.05;84.36;57054.88;4996860;28;20089;-82
2023/02/20 00:52:29;;;;;;;15.30;7.38;;;5.50;99.90;;;-144.05;83.97;57033.63;4998377;28;20034;-83
2023/02/20 00:54:55;;;;;;;16.13;8.23;;;5.50;99.90;;;-144.05;84.28;57061.22;4996514;28;20114;-83
2023/02/20 00:57:21;;;;;;;18.52;7.60;;;5.50;99.90;;;-144.05;83.92;57073.97;4997127;28;20026;-81
2023/02/20 00:59:47;;;;;;;15.40;7.93;;;5.50;99.90;;;-144.05;84.46;57025.13;4995671;28;20540;-84
2023/02/20 01:02:14;;;;;;;16.10;8.80;;;5.50;99.90;;;-144.05;84.18;57052.75;4994581;28;20512;-82
2023/02/20 01:04:41;;;;;;;16.17;8.52;;;5.50;99.90;;;-144.05;84.59;57061.22;4995806;28;20517;-80
2023/02/20 01:07:07;;;;;;;19.13;9.63;;;5.50;99.90;;;-144.05;84.32;57052.75;4996859;28;20038;-82
2023/02/20 01:09:33;;;;;;;17.02;9.13;;;5.50;99.90;;;-144.05;84.91;57029.38;4995812;28;20389;-81
2023/02/20 01:11:59;;;;;;;20.60;10.43;;;5.60;99.90;;;-144.05;84.77;57059.09;4996176;28;20097;-81
2023/02/20 01:14:24;;;;;;;19.63;9.65;;;5.60;99.90;;;-144.05;84.61;57031.50;4994308;28;20512;-82
2023/02/20 01:16:53;;;;;;;18.20;10.15;;;5.70;99.90;;;-144.05;84.84;57063.34;4992697;28;20414;-80
2023/02/20 01:19:22;;;;;;;21.73;11.15;;;5.70;99.90;;;-144.05;85.14;57042.13;4994330;28;20035;-81
2023/02/20 01:21:49;;;;;;;24.15;11.27;;;5.70;99.90;;;-144.05;84.69;57048.50;4992988;28;20026;-80
2023/02/20 01:24:18;;;;;;;20.65;10.75;;;5.70;99.90;;;-144.05;84.83;57040.00;4995660;28;20057;-82
2023/02/20 01:26:47;;;;;;;24.95;10.55;;;5.80;99.90;;;-144.05;84.90;57050.63;4996607;28;20030;-82
2023/02/20 01:29:16;;;;;;;22.38;11.18;;;5.80;99.90;;;-144.05;84.69;57044.25;4996506;28;20022;-80
2023/02/20 01:31:51;;;;;;;24.10;11.75;;;5.80;99.90;;;-144.05;85.47;57048.50;4995242;28;20130;-83
2023/02/20 01:34:20;;;;;;;30.58;12.40;;;5.80;99.90;;;-144.05;85.20;57010.25;4995242;28;20105;-81
2023/02/20 01:36:50;;;;;;;25.88;12.82;;;5.90;99.90;;;-144.05;85.01;57063.34;4996169;28;20040;-79
2023/02/20 01:39:25;;;;;;;25.92;12.45;;;5.90;99.90;;;-144.05;85.16;57054.88;4994451;28;20038;-80
2023/02/20 01:42:01;;;;;;;27.15;13.30;;;6.00;99.90;;;-144.05;84.72;57061.22;4995600;28;20034;-83
2023/02/20 01:44:33;;;;;;;;;;;6.00;99.90;;;-144.05;84.15;57042.13;4996606;28;20493;-80
2023/02/20 01:47:08;;;;;;;23.50;11.23;;;6.10;99.90;;;-144.05;84.04;57048.50;4996280;28;19924;-80
2023/02/20 01:49:49;;;;;;;26.02;12.20;;;6.10;99.90;;;-144.05;83.97;57033.63;4995696;28;20109;-80
2023/02/20 01:52:28;;;;;;;25.38;11.20;;;6.10;99.90;;;-144.05;83.28;57033.63;4996034;28;20030;-82
2023/02/20 01:55:10;;;;;;;21.63;11.18;;;6.20;99.90;;;-144.05;83.35;57073.97;4994144;28;20430;-82
2023/02/20 01:57:43;;;;;;;21.85;11.57;;;6.20;99.90;;;-144.05;82.56;57010.25;4994444;28;20113;-83
2023/02/20 02:00:15;;;;;;;19.83;10.18;;;6.30;99.90;;;-144.05;82.19;57044.25;4996367;28;20034;-81
2023/02/20 02:02:52;;;;;;;20.30;9.95;;;6.20;99.90;;;-144.05;81.99;57069.72;4996120;28;20489;-83
2023/02/20 02:05:21;;;;;;;20.42;10.45;;;6.20;99.90;;;-144.05;81.96;57042.13;4995797;28;20034;-80
2023/02/20 02:07:47;;;;;;;20.73;10.02;;;6.30;99.90;;;-144.05;81.32;57025.13;5031307;23;20076;-79
2023/02/20 02:10:29;;;;;;;21.17;10.02;;;6.30;99.90;;;-144.05;81.77;57029.38;5037200;28;20443;-78
2023/02/20 02:12:56;;;;;;;19.33;9.50;;;6.20;99.90;;;-144.05;81.76;57023.00;5022399;28;20388;-78
2023/02/20 02:15:23;;;;;;;17.00;9.52;;;6.20;99.90;;;-144.05;81.37;57016.63;5039643;28;20018;-78
2023/02/20 02:18:40;;;;;;;18.02;9.63;;;6.20;99.90;;;-144.05;81.07;57040.00;5022259;28;20026;-78
2023/02/20 02:22:03;;;;;;;31.63;9.40;;;6.20;99.90;;;-144.05;81.46;57059.09;5040992;28;20021;-78
2023/02/20 02:24:59;;;;;;;19.73;9.25;;;6.30;99.90;;;-144.05;80.93;57010.25;5022560;28;20029;-77
2023/02/20 02:28:22;;;;;;;19.75;9.27;;;6.30;99.90;;;-144.05;80.77;57035.75;5021948;28;20374;-77
2023/02/20 02:31:28;;;;;;;16.35;8.65;;;6.40;99.90;;;-144.05;80.60;57042.13;5026403;28;20481;-78
2023/02/20 02:34:43;;;;;;;17.75;9.50;;;6.40;99.90;;;-144.05;80.62;57035.75;5021781;28;20029;-78
2023/02/20 02:37:36;;;;;;;17.95;9.60;;;6.40;99.90;;;-144.05;80.53;57052.75;5039423;28;20026;-78
2023/02/20 02:40:40;;;;;;;19.02;9.80;;;6.40;99.90;;;-144.05;80.72;57010.25;5020705;28;20025;-77
2023/02/20 02:43:18;;;;;;;20.48;10.82;;;6.40;99.90;;;-144.05;80.96;57048.50;5021417;28;20034;-78
2023/02/20 02:46:04;;;;;;;23.10;11.80;;;6.40;99.90;;;-144.05;80.84;57044.25;5040343;28;20061;-77
2023/02/20 02:48:44;;;;;;;24.15;11.40;;;6.30;99.90;;;-144.05;80.83;57018.75;5040301;28;20048;-78
2023/02/20 02:51:24;;;;;;;19.65;9.75;;;6.30;99.90;;;-144.05;80.77;57029.38;5040822;28;20035;-76
2023/02/20 02:54:12;;;;;;;24.15;10.68;;;6.40;99.90;;;-144.05;80.65;57035.75;5038186;28;20076;-78
2023/02/20 02:56:48;;;;;;;22.08;10.80;;;6.40;99.90;;;-144.05;80.71;57046.38;5039663;28;20512;-78
2023/02/20 02:59:31;;;;;;;19.27;11.52;;;6.40;99.90;;;-144.05;80.79;57031.50;5039186;28;20033;-78
2023/02/20 03:02:08;;;;;;;22.60;10.50;;;6.40;99.90;;;-144.05;80.34;57020.88;5038002;28;20034;-77
2023/02/20 03:04:38;;;;;;;21.63;10.90;;;6.30;99.90;;;-144.05;80.81;57059.09;5020032;28;20122;-78
2023/02/20 03:07:14;;;;;;;18.35;10.00;;;6.30;99.90;;;-144.05;80.95;57023.00;5046735;28;20029;-77
2023/02/20 03:10:06;;;;;;;22.73;9.95;;;6.30;99.90;;;-144.05;80.82;57044.25;5047566;28;20049;-77
2023/02/20 03:12:40;;;;;;;22.48;11.30;;;6.30;99.90;;;-144.05;80.87;57052.75;5046980;28;20504;-78
2023/02/20 03:15:33;;;;;;;18.70;9.73;;;6.40;99.90;;;-144.05;80.35;57044.25;5042101;28;20385;-78
2023/02/20 03:18:23;;;;;;;21.23;9.20;;;6.40;99.90;;;-144.05;80.20;57044.25;5022448;28;20052;-77
2023/02/20 03:21:08;;;;;;;19.02;9.13;;;6.40;99.90;;;-144.05;80.15;57048.50;5027558;28;20064;-78
2023/02/20 03:23:54;;;;;;;23.67;10.05;;;6.40;99.90;;;-144.05;80.05;57033.63;5023953;28;20040;-76
2023/02/20 03:26:36;;;;;;;25.13;10.13;;;6.40;99.90;;;-144.05;80.13;57040.00;5042106;28;20029;-78
2023/02/20 03:29:29;;;;;;;22.08;10.18;;;6.40;99.90;;;-144.05;80.06;57033.63;5045774;28;20030;-79
2023/02/20 03:43:33;;;;;;;18.95;9.73;;;6.30;99.90;;;-144.05;80.22;57029.38;5041304;28;20129;-78
2023/02/20 03:46:17;;;;;;;18.63;8.65;;;6.40;99.90;;;-144.05;80.30;57050.63;5039838;28;20112;-78
2023/02/20 03:49:04;;;;;;;19.20;9.13;;;6.30;99.90;;;-144.05;80.77;57035.75;5040299;28;20064;-79
2023/02/20 03:51:31;;;;;;;20.38;9.95;;;6.40;99.90;;;-144.05;80.35;57042.13;5024001;28;20026;-75
2023/02/20 03:53:59;;;;;;;16.33;8.38;;;6.40;99.90;;;-144.05;80.49;57025.13;5040968;28;20021;-79
2023/02/20 03:56:41;;;;;;;18.73;9.25;;;6.40;99.90;;;-144.05;80.30;57023.00;5037487;28;20032;-78
2023/02/20 03:59:29;;;;;;;25.60;9.50;;;6.40;99.90;;;-144.05;80.06;57054.88;5021168;28;20057;-77
2023/02/20 04:02:13;;;;;;;20.55;9.10;;;6.30;99.90;;;-144.05;80.08;57052.75;5039363;28;20177;-75
2023/02/20 04:04:50;;;;;;;18.02;9.77;;;6.30;99.90;;;-144.05;80.52;57023.00;5039970;28;20025;-79
2023/02/20 04:07:35;;;;;;;21.10;9.38;;;6.30;99.90;;;-144.05;80.31;57016.63;5039125;28;20053;-79
2023/02/20 04:10:08;;;;;;;21.93;8.93;;;6.20;99.90;;;-144.05;80.52;57050.63;5039764;28;20057;-78
2023/02/20 04:12:42;;;;;;;22.05;9.40;;;6.30;99.90;;;-144.05;80.24;57031.50;5039485;28;20275;-78
2023/02/20 04:15:11;;;;;;;25.27;9.50;;;6.20;99.90;;;-144.05;80.71;57031.50;5022011;28;20051;-78
2023/02/20 04:17:54;;;;;;;21.15;9.68;;;6.20;99.90;;;-144.05;80.69;57037.88;5039449;28;20029;-79
2023/02/20 04:20:21;;;;;;;17.83;9.80;;;6.10;99.90;;;-144.05;80.70;57023.00;5022012;28;20065;-79
2023/02/20 04:22:55;;;;;;;21.70;9.65;;;6.10;99.90;;;-144.05;80.74;57044.25;5039657;28;20103;-79
2023/02/20 04:25:41;;;;;;;16.50;8.48;;;6.10;99.90;;;-144.05;80.92;57061.22;5022432;28;20034;-79
2023/02/20 04:28:07;;;;;;;19.27;9.68;;;6.20;99.90;;;-144.05;80.81;57023.00;5039774;28;20022;-79
2023/02/20 04:30:33;;;;;;;17.60;8.95;;;6.10;99.90;;;-144.05;80.79;57040.00;5040617;28;20063;-78
2023/02/20 04:33:00;;;;;;;24.58;9.20;;;6.20;99.90;;;-144.05;80.38;57042.13;5039224;28;20029;-78
2023/02/20 04:35:26;;;;;;;17.98;8.52;;;6.20;99.90;;;-144.05;80.32;57056.97;5039308;28;20025;-78
2023/02/20 04:37:52;;;;;;;17.25;9.48;;;6.10;99.90;;;-144.05;80.72;57052.75;5038130;28;20067;-78
2023/02/20 04:40:22;;;;;;;21.67;8.68;;;6.10;99.90;;;-144.05;80.17;57048.50;5038983;28;20041;-77
2023/02/20 04:42:49;;;;;;;16.38;8.35;;;6.10;99.90;;;-144.05;80.37;57027.25;5022652;28;20105;-79
2023/02/20 04:45:18;;;;;;;18.20;7.97;;;6.10;99.90;;;-144.05;80.73;57059.09;5038937;28;20040;-77
2023/02/20 04:47:45;;;;;;;20.73;9.55;;;6.10;99.90;;;-144.05;79.91;57054.88;5039641;28;20034;-79
2023/02/20 04:50:27;;;;;;;20.10;8.35;;;6.00;99.90;;;-144.05;80.34;57050.63;5021059;28;20038;-78
2023/02/20 04:52:54;;;;;;;18.15;7.70;;;6.10;99.90;;;-144.05;80.19;57031.50;5039282;28;20025;-78
2023/02/20 04:55:20;;;;;;;15.45;7.07;;;6.10;99.90;;;-144.05;79.62;57040.00;5039201;28;20017;-78
2023/02/20 04:57:48;;;;;;;21.33;7.95;;;6.10;99.90;;;-144.05;80.22;57050.63;5039458;28;20033;-79
2023/02/20 05:00:19;;;;;;;16.27;8.00;;;6.10;99.90;;;-144.05;80.28;57054.88;5038951;28;20119;-77
2023/02/20 05:02:45;;;;;;;18.48;7.40;;;6.10;99.90;;;-144.05;80.05;57042.13;5038812;28;20025;-79
2023/02/20 05:05:23;;;;;;;13.35;6.70;;;6.10;99.90;;;-144.05;80.34;57031.50;5038104;28;20366;-79
2023/02/20 05:08:11;;;;;;;15.82;7.32;;;6.10;99.90;;;-144.05;80.54;57023.00;5038548;28;20029;-78
2023/02/20 05:10:37;;;;;;;20.98;6.93;;;6.20;99.90;;;-144.05;80.20;57031.50;5020886;28;20032;-79
2023/02/20 05:13:03;;;;;;;16.52;8.15;;;6.20;99.90;;;-144.05;79.92;57040.00;5021068;28;20033;-79
2023/02/20 05:15:31;;;;;;;15.40;7.15;;;6.30;99.90;;;-144.05;79.75;57052.75;5039464;28;20025;-79
2023/02/20 05:18:00;;;;;;;16.27;7.07;;;6.30;99.90;;;-144.05;80.14;57027.25;5040941;28;20059;-77
2023/02/20 05:22:17;;;;;;;12.80;6.28;;;6.30;99.90;;;-144.05;79.55;57033.63;5038920;28;20044;-78
2023/02/20 05:23:12;;;;;;;15.00;6.18;;;6.30;99.90;;;-144.05;80.04;57031.50;5038859;28;20025;-78
2023/02/20 05:25:38;;;;;;;16.67;6.35;;;6.30;99.90;;;-144.05;79.83;57050.63;5021290;28;20037;-79
2023/02/20 05:28:04;;;;;;;19.73;7.22;;;6.30;99.90;;;-144.05;79.94;57065.47;5038039;28;20044;-78
2023/02/20 05:30:30;;;;;;;20.00;6.80;;;6.40;99.90;;;-144.05;80.15;57033.63;5039878;28;20026;-79
2023/02/20 05:32:56;;;;;;;18.30;7.53;;;6.30;99.90;;;-144.05;79.54;57046.38;5020862;28;20390;-78
2023/02/20 05:35:22;;;;;;;15.73;7.15;;;6.30;99.90;;;-144.05;79.87;57044.25;5039675;28;20029;-78
2023/02/20 05:37:47;;;;;;;19.45;7.70;;;6.30;99.90;;;-144.05;79.84;57014.50;5038149;28;20033;-78
2023/02/20 05:40:13;;;;;;;13.90;6.82;;;6.30;99.90;;;-144.05;80.00;57020.88;5038098;28;20045;-78
2023/02/20 05:42:40;;;;;;;17.20;6.82;;;6.30;99.90;;;-144.05;80.09;57061.22;5019295;28;20820;-78
2023/02/20 05:45:08;;;;;;;14.38;6.18;;;6.30;99.90;;;-144.05;79.80;57040.00;5018488;28;20037;-78
2023/02/20 05:47:37;;;;;;;14.13;6.35;;;6.30;99.90;;;-144.05;79.96;57052.75;5033763;28;20037;-77
2023/02/20 05:50:05;;;;;;;17.85;6.45;;;6.30;99.90;;;-144.05;79.40;57018.75;5032737;28;20037;-78
2023/02/20 05:52:31;;;;;;;13.00;6.68;;;6.30;99.90;;;-144.05;80.02;57035.75;5036263;28;20072;-77
2023/02/20 05:54:57;;;;;;;14.82;6.65;;;6.30;99.90;;;-144.05;80.50;57031.50;5017146;28;20103;-76
2023/02/20 05:57:22;;;;;;;12.32;6.35;;;6.30;99.90;;;-144.05;80.30;57035.75;5017190;28;20040;-77
2023/02/20 05:59:48;;;;;;;19.33;6.28;;;6.30;99.90;;;-144.05;79.92;57065.47;5035203;28;20093;-78
2023/02/20 06:02:14;;;;;;;14.27;6.47;;;6.30;99.90;;;-144.05;79.96;57029.38;5035154;28;20101;-76
2023/02/20 06:04:40;;;;;;;11.98;5.63;;;6.20;99.90;;;-144.05;80.30;57040.00;5017991;28;20120;-78
2023/02/20 06:07:11;;;;;;;15.85;7.60;;;6.30;99.90;;;-144.05;80.14;57035.75;5036807;28;20362;-79
2023/02/20 06:09:42;;;;;;;14.02;6.10;;;6.20;99.90;;;-144.05;80.11;57054.88;5036490;28;20131;-79
2023/02/20 06:12:08;;;;;;;14.48;5.95;;;6.20;99.90;;;-144.05;80.50;57031.50;5036073;28;20370;-77
2023/02/20 06:14:34;;;;;;;13.57;6.60;;;6.20;99.90;;;-144.05;80.55;57048.50;5037085;28;20072;-78
2023/02/20 06:17:00;;;;;;;16.90;6.40;;;6.20;99.90;;;-144.05;80.38;57018.75;5036817;28;20026;-78
2023/02/20 06:19:26;;;;;;;10.13;6.03;;;6.20;99.90;;;-144.05;80.54;57023.00;5036621;28;20029;-78
2023/02/20 06:21:53;;;;;;;17.13;6.75;;;6.20;99.90;;;-144.05;80.71;57052.75;5020402;28;20026;-80
2023/02/20 06:24:21;;;;;;;15.88;6.68;;;6.20;99.90;;;-144.05;80.20;57042.13;5037973;28;20375;-78
2023/02/20 06:26:47;;;;;;;13.73;5.40;;;6.20;99.90;;;-144.05;80.57;57056.97;5019583;28;20038;-79
2023/02/20 06:29:16;;;;;;;16.50;6.72;;;6.20;99.90;;;-144.05;80.37;57052.75;5036634;28;20068;-79
2023/02/20 06:31:42;;;;;;;18.63;6.20;;;6.10;99.90;;;-144.05;80.49;57035.75;5037582;28;20103;-79
2023/02/20 06:34:10;;;;;;;25.20;6.53;;;6.10;99.90;;;-144.05;80.75;57050.63;5038252;28;20037;-78
2023/02/20 06:36:40;;;;;;;14.00;7.32;;;6.10;99.90;;;-144.05;81.17;57040.00;5037859;28;20146;-78
2023/02/20 06:39:09;;;;;;;18.13;6.53;;;6.10;99.90;;;-144.05;81.40;57052.75;5037248;28;20023;-78
2023/02/20 06:41:36;;;;;;;15.73;6.90;;;6.10;99.90;;;-144.05;80.61;57027.25;5036973;28;20049;-79
2023/02/20 06:44:01;;;;;;;15.85;7.55;;;6.10;99.90;;;-144.05;80.39;57067.59;5036472;28;20099;-78
2023/02/20 06:46:27;;;;;;;15.10;7.78;;;6.10;99.90;;;-144.05;80.20;57040.00;5036191;28;20476;-78
2023/02/20 06:48:57;;;;;;;17.17;8.18;;;6.10;99.90;;;-144.05;80.04;57035.75;5036295;28;20087;-78
2023/02/20 06:51:32;;;;;;;17.25;9.13;;;6.10;99.90;;;-144.05;80.00;57025.13;5037200;28;20025;-78
2023/02/20 06:54:01;;;;;;;15.48;8.57;;;6.10;99.90;;;-144.05;80.04;57050.63;5037119;28;20026;-78
2023/02/20 06:56:32;;;;;;;21.17;8.80;;;6.10;99.90;;;-144.05;80.49;57037.88;5038525;28;20116;-76
2023/02/20 06:58:59;;;;;;;20.35;9.73;;;6.10;99.90;;;-144.05;80.37;57023.00;5039887;28;20431;-77
2023/02/20 07:01:35;;;;;;;19.15;10.70;;;6.10;99.90;;;-144.05;80.60;57040.00;5040764;28;20090;-79
2023/02/20 07:04:01;;;;;;;19.75;11.57;;;6.10;99.90;;;-144.05;80.47;57076.09;5040433;28;20030;-78
2023/02/20 07:06:27;;;;;;;25.10;12.38;;;6.10;99.90;;;-144.05;80.61;57046.38;5041152;28;20041;-77
2023/02/20 07:08:53;;;;;;;25.77;14.88;;;6.10;99.90;;;-144.05;81.41;57042.13;5040675;28;20037;-77
2023/02/20 07:11:22;;;;;;;36.15;17.48;;;6.00;99.90;;;-144.05;81.63;57050.63;5040376;28;20035;-77
2023/02/20 07:14:02;;;;;;;25.85;15.65;;;6.00;99.90;;;-144.05;81.60;57059.09;5040408;28;20040;-77
2023/02/20 07:16:30;;;;;;;28.58;16.15;;;6.00;99.90;;;-144.05;81.51;57033.63;5040441;28;20029;-79
2023/02/20 07:18:56;;;;;;;31.38;16.52;;;6.00;99.90;;;-144.05;81.14;57069.72;5040177;28;20022;-79
2023/02/20 07:21:23;;;;;;;29.77;15.52;;;5.90;99.90;;;-144.05;81.45;57061.22;5024058;28;20388;-78
2023/02/20 07:23:48;;;;;;;37.15;17.52;;;6.00;99.90;;;-144.05;81.76;57031.50;5041652;28;20022;-78
2023/02/20 07:26:25;;;;;;;31.38;18.52;;;6.00;99.90;;;-144.05;82.11;57014.50;5041015;28;20025;-78
2023/02/20 07:28:54;;;;;;;32.80;18.17;;;6.00;99.90;;;-144.05;81.84;57025.13;5039253;28;20025;-78
2023/02/20 07:31:21;;;;;;;37.70;19.48;;;5.90;99.90;;;-144.05;82.52;57016.63;5043070;28;20037;-78
2023/02/20 07:33:46;;;;;;;38.08;19.90;;;5.90;99.90;;;-144.05;82.11;57050.63;5021691;28;20029;-78
2023/02/20 07:36:15;;;;;;;31.42;20.25;;;5.90;99.90;;;-144.05;81.78;57031.50;5022059;28;20032;-79
2023/02/20 07:38:42;;;;;;;34.55;20.52;;;5.90;99.90;;;-144.05;81.87;57067.59;5022012;28;20397;-77
2023/02/20 07:41:09;;;;;;;39.00;19.23;;;5.90;99.90;;;-144.05;82.04;57050.63;5021310;28;20041;-76
2023/02/20 07:43:35;;;;;;;30.77;19.17;;;5.90;99.90;;;-144.05;81.96;57040.00;5039827;28;20040;-78
2023/02/20 07:46:01;;;;;;;32.95;18.27;;;5.90;99.90;;;-144.05;81.94;57025.13;5036894;28;20037;-78
2023/02/20 07:48:27;;;;;;;38.83;21.30;;;5.90;99.90;;;-144.05;81.76;57044.25;5037976;28;20044;-77
2023/02/20 07:50:53;;;;;;;42.08;22.13;;;5.90;99.90;;;-144.05;81.40;57023.00;5038286;28;20442;-77
2023/02/20 07:53:20;;;;;;;38.80;20.67;;;6.00;99.90;;;-144.05;81.34;57044.25;5040275;28;20036;-77
2023/02/20 07:55:46;;;;;;;33.05;19.38;;;6.00;99.90;;;-144.05;80.82;57054.88;5039918;28;20025;-77
2023/02/20 07:58:12;;;;;;;36.05;19.05;;;6.00;99.90;;;-144.05;80.90;57052.75;5038095;28;20110;-78
2023/02/20 08:00:38;;;;;;;35.55;17.90;;;6.10;99.90;;;-144.05;80.68;57048.50;5038303;28;20096;-77
2023/02/20 08:03:04;;;;;;;34.92;18.58;;;6.10;99.90;;;-144.05;80.97;57044.25;5038861;28;20389;-76
2023/02/20 08:05:30;;;;;;;28.15;15.45;;;6.10;99.90;;;-144.05;80.40;57065.47;5038328;28;20029;-76
2023/02/20 08:07:56;;;;;;;26.50;15.68;;;6.20;99.90;;;-144.05;80.12;57040.00;5036622;28;20059;-75
2023/02/20 08:10:27;;;;;;;33.70;15.80;;;6.20;99.90;;;-144.05;79.62;57023.00;5018821;28;20044;-75
2023/02/20 08:12:55;;;;;;;25.30;14.60;;;6.30;99.90;;;-144.05;79.22;57044.25;5039367;28;20036;-77
2023/02/20 08:15:22;;;;;;;31.02;16.20;;;6.30;99.90;;;-144.05;79.43;57033.63;5039246;28;20385;-75
2023/02/20 08:17:48;;;;;;;24.40;14.43;;;6.30;99.90;;;-144.05;79.83;57023.00;5039372;28;20485;-78
2023/02/20 08:20:20;;;;;;;25.88;14.00;;;6.30;99.90;;;-144.05;79.43;57044.25;5037518;28;20033;-77
2023/02/20 08:22:48;;;;;;;25.58;14.43;;;6.30;99.90;;;-144.05;79.33;57016.63;5037447;28;20029;-75
2023/02/20 08:25:16;;;;;;;28.80;14.18;;;6.30;99.90;;;-144.05;79.31;57059.09;5020415;28;20067;-76
2023/02/20 08:27:45;;;;;;;29.42;14.45;;;6.30;99.90;;;-144.05;79.89;57059.09;5037947;28;20040;-77
2023/02/20 08:30:23;;;;;;;25.88;13.50;;;6.30;99.90;;;-144.05;80.10;57050.63;5037104;28;20501;-76
2023/02/20 08:32:51;;;;;;;27.23;13.95;;;6.30;99.90;;;-144.05;79.71;57040.00;5037592;28;20053;-77
2023/02/20 08:35:17;;;;;;;23.98;12.88;;;6.30;99.90;;;-144.05;79.58;57050.63;5020338;28;20045;-77
2023/02/20 08:37:44;;;;;;;23.77;13.13;;;6.30;99.90;;;-144.05;79.54;57044.25;5038311;28;20120;-77
2023/02/20 08:40:11;;;;;;;26.85;13.00;;;6.30;99.90;;;-144.05;79.74;57048.50;5020362;28;20029;-76
2023/02/20 08:42:37;;;;;;;24.88;14.05;;;6.30;99.90;;;-144.05;79.59;57046.38;5036975;28;20057;-77
2023/02/20 08:45:07;;;;;;;26.23;13.52;;;6.30;99.90;;;-144.05;79.62;57027.25;5019330;28;20064;-77
2023/02/20 08:47:33;;;;;;;29.25;14.02;;;6.30;99.90;;;-144.05;79.07;57025.13;5034668;28;20033;-77
2023/02/20 08:50:00;;;;;;;31.25;14.23;;;6.40;99.90;;;-144.05;80.19;57031.50;5035315;28;20064;-78
2023/02/20 08:52:26;;;;;;;26.25;13.95;;;6.40;99.90;;;-144.05;79.25;57031.50;5036275;28;20449;-76
2023/02/20 08:54:52;;;;;;;25.25;13.60;;;6.50;99.90;;;-144.05;79.27;57033.63;5018705;28;20056;-79
2023/02/20 08:57:18;;;;;;;23.92;13.38;;;6.60;99.90;;;-144.05;79.50;57044.25;5035797;28;20037;-78
2023/02/20 08:59:45;;;;;;;27.77;14.00;;;6.60;99.90;;;-144.05;78.70;57023.00;5017970;28;20052;-78
2023/02/20 09:02:23;;;;;;;21.80;12.60;;;6.60;99.90;;;-144.05;79.27;57023.00;5036163;28;20029;-77
2023/02/20 09:04:49;;;;;;;26.13;12.73;;;6.60;99.90;;;-144.05;79.07;57040.00;5018057;28;20136;-77
2023/02/20 09:07:16;;;;;;;29.75;13.25;;;6.60;99.90;;;-144.05;79.65;57023.00;5035096;28;20042;-78
2023/02/20 09:09:42;;;;;;;23.25;13.05;;;6.60;99.90;;;-144.05;79.15;57061.22;5035661;28;20044;-77
2023/02/20 09:12:08;;;;;;;23.35;12.13;;;6.60;99.90;;;-144.05;78.89;57044.25;5017944;28;20026;-77
2023/02/20 09:14:35;;;;;;;25.65;12.75;;;6.70;99.90;;;-144.05;78.80;57031.50;5035802;28;20022;-76
2023/02/20 09:17:01;;;;;;;24.55;14.40;;;6.70;99.90;;;-144.05;78.72;57056.97;5034946;28;20048;-77
2023/02/20 09:19:27;;;;;;;22.65;11.52;;;6.70;99.90;;;-144.05;79.48;57020.88;5035398;28;20480;-77
2023/02/20 09:21:53;;;;;;;22.90;12.32;;;6.60;99.90;;;-144.05;79.66;57054.88;5035739;28;20026;-77
2023/02/20 09:24:19;;;;;;;23.13;12.55;;;6.60;99.90;;;-144.05;79.19;57040.00;5035168;28;20044;-76
2023/02/20 09:26:44;;;;;;;23.60;12.55;;;6.60;99.90;;;-144.05;78.81;57025.13;5016772;28;20038;-76
2023/02/20 09:29:10;;;;;;;31.95;12.50;;;6.70;99.90;;;-144.05;79.20;57033.63;5016693;28;20417;-77
2023/02/20 09:31:36;;;;;;;21.83;13.07;;;6.60;99.90;;;-144.05;79.54;57040.00;5016459;28;20036;-77
2023/02/20 09:34:03;;;;;;;27.60;13.65;;;6.60;99.90;;;-144.05;79.15;57035.75;5034395;28;20108;-77
2023/02/20 09:36:29;;;;;;;27.95;13.63;;;6.60;99.90;;;-144.05;79.51;57040.00;5017741;28;20029;-79
2023/02/20 09:38:55;;;;;;;25.52;12.93;;;6.60;99.90;;;-144.05;79.50;57035.75;5035263;28;20113;-77
2023/02/20 09:42:04;;;;;;;24.90;13.32;;;6.60;99.90;;;-144.05;80.00;57044.25;5036077;28;20025;-78
2023/02/20 09:45:12;;;;;;;24.88;11.93;;;6.60;99.90;;;-144.05;80.20;57073.97;5036270;28;20041;-78
2023/02/20 09:47:49;;;;;;;24.58;11.93;;;6.60;99.90;;;-144.05;80.46;57048.50;5036486;28;20099;-77
2023/02/20 09:50:50;;;;;;;26.45;13.10;;;6.60;99.90;;;-144.05;79.90;57046.38;5036910;28;20037;-77
2023/02/20 09:53:31;;;;;;;29.60;13.32;;;6.60;99.90;;;-144.05;79.23;57040.00;5036306;28;20035;-75
2023/02/20 09:56:01;;;;;;;22.48;12.50;;;6.70;99.90;;;-144.05;79.63;57018.75;5035368;28;20025;-77
2023/02/20 09:59:03;;;;;;;30.02;12.75;;;6.70;99.90;;;-144.05;80.22;57040.00;5035316;28;20068;-79
2023/02/20 10:01:32;;;;;;;24.75;12.38;;;6.80;99.90;;;-144.05;79.87;57031.50;5018523;28;20055;-79
2023/02/20 10:04:09;;;;;;;23.33;13.65;;;6.80;99.90;;;-144.05;79.97;57040.00;5035841;28;20493;-76
2023/02/20 10:06:35;;;;;;;26.13;12.52;;;6.90;99.90;;;-144.05;79.54;57027.25;5035160;28;20049;-76
2023/02/20 10:09:05;;;;;;;24.65;12.95;;;6.90;99.90;;;-144.05;79.62;57014.50;5034911;28;20409;-76
2023/02/20 10:11:51;;;;;;;24.85;12.60;;;6.90;99.90;;;-144.05;79.55;57035.75;5016733;28;20030;-77
2023/02/20 10:15:19;;;;;;;23.50;12.88;;;6.90;99.90;;;-144.05;79.49;57059.09;5035182;28;20033;-78
2023/02/20 10:18:42;;;;;;;22.25;12.65;;;7.00;99.90;;;-144.05;79.83;57031.50;5004758;28;20045;-78
2023/02/20 10:21:45;;;;;;;23.83;11.05;;;7.00;99.90;;;-144.05;79.69;57027.25;5027432;28;20124;-78
2023/02/20 10:25:04;;;;;;;19.52;12.30;;;7.00;99.90;;;-144.05;79.92;56993.25;5034742;28;20030;-78
2023/02/20 10:28:01;;;;;;;22.95;12.52;;;7.10;99.90;;;-144.05;79.83;57025.13;5035429;28;20029;-77
2023/02/20 10:31:04;;;;;;;18.42;11.95;;;7.10;99.90;;;-144.05;79.79;57035.75;5035591;28;20485;-75
2023/02/20 10:33:48;;;;;;;25.63;11.82;;;7.10;99.90;;;-144.05;79.74;57040.00;5020950;28;20040;-76
2023/02/20 10:36:45;;;;;;;24.40;12.05;;;7.20;99.90;;;-144.05;79.32;57050.63;5038164;28;20075;-76
2023/02/20 10:39:20;;;;;;;29.88;13.07;;;7.20;99.90;;;-144.05;79.19;57048.50;5025775;28;20025;-76